SBTT/TBT METAR and TAF weather

Enter ICAO airport designator
Station Type Date Time Source
SBTT METAR 2020/02/25 23:00 UTC NOAA

SBTT 252300Z 00000KT 9999 FEW015 SCT080 27/24 Q1007


Station Type Date Time Source
SBTT Decoded METAR 2020/02/25 23:00 UTC NOAA

Tabatinga, Brazil (SBTT) 03-40S 069-40W
Feb 25, 2020 - 06:00 PM EST / 2020.02.25 2300 UTC
Wind: Calm:0
Visibility: greater than 7 mile(s):0
Sky conditions: partly cloudy
Temperature: 80 F (27 C)
Dew Point: 75 F (24 C)
Relative Humidity: 83%
Pressure (altimeter): 29.74 in. Hg (1007 hPa)
ob: SBTT 252300Z 00000KT 9999 FEW015 SCT080 27/24 Q1007
cycle: 23

Station Type Date Time Source
SBTT TAF 2020/02/26 12:59 UTC NOAA

TAF SBTT 260900Z 2612/2712 04005KT 9999 BKN010 TX29/2618Z TN24/2711Z
BECMG 2613/2615 SCT012
BECMG 2617/2618 SCT020 FEW025TCU
TEMPO 2619/2622 30007KT TS SCT020 FEW025CB
BECMG 2623/2701 FEW015
RMK PHQ

Example: see airport list